sensor_id;sensor_type;location;lat;lon;timestamp;temperature;humidity
20284;DHT22;10301;50.832;4.080;2023-08-20T00:00:53;20.20;23.70
20284;DHT22;10301;50.832;4.080;2023-08-20T00:03:18;20.10;32.90
20284;DHT22;10301;50.832;4.080;2023-08-20T00:05:44;20.20;38.40
20284;DHT22;10301;50.832;4.080;2023-08-20T00:08:10;20.50;25.10
20284;DHT22;10301;50.832;4.080;2023-08-20T00:10:36;20.80;11.80
20284;DHT22;10301;50.832;4.080;2023-08-20T00:13:01;20.90;1.00
20284;DHT22;10301;50.832;4.080;2023-08-20T00:15:27;20.60;9.80
20284;DHT22;10301;50.832;4.080;2023-08-20T00:17:54;20.70;16.30
20284;DHT22;10301;50.832;4.080;2023-08-20T00:20:21;20.80;9.40
20284;DHT22;10301;50.832;4.080;2023-08-20T00:22:47;20.90;1.00
20284;DHT22;10301;50.832;4.080;2023-08-20T00:25:14;20.90;1.00
20284;DHT22;10301;50.832;4.080;2023-08-20T00:27:41;20.90;2.30
20284;DHT22;10301;50.832;4.080;2023-08-20T00:30:07;21.20;1.00
20284;DHT22;10301;50.832;4.080;2023-08-20T00:32:34;21.40;1.00
20284;DHT22;10301;50.832;4.080;2023-08-20T00:35:00;21.30;1.00
20284;DHT22;10301;50.832;4.080;2023-08-20T00:37:26;21.40;1.00
20284;DHT22;10301;50.832;4.080;2023-08-20T00:39:51;21.40;1.00
20284;DHT22;10301;50.832;4.080;2023-08-20T00:42:17;21.20;1.00
20284;DHT22;10301;50.832;4.080;2023-08-20T00:44:43;21.00;1.00
20284;DHT22;10301;50.832;4.080;2023-08-20T00:47:12;20.80;5.70
20284;DHT22;10301;50.832;4.080;2023-08-20T00:49:39;20.80;6.20
20284;DHT22;10301;50.832;4.080;2023-08-20T00:52:08;20.80;15.90
20284;DHT22;10301;50.832;4.080;2023-08-20T00:54:34;21.00;7.40
20284;DHT22;10301;50.832;4.080;2023-08-20T00:57:01;21.20;1.00
20284;DHT22;10301;50.832;4.080;2023-08-20T00:59:28;21.40;1.00
20284;DHT22;10301;50.832;4.080;2023-08-20T01:01:55;21.30;1.00
20284;DHT22;10301;50.832;4.080;2023-08-20T01:04:20;21.40;1.00
20284;DHT22;10301;50.832;4.080;2023-08-20T01:07:04;21.30;1.00
20284;DHT22;10301;50.832;4.080;2023-08-20T01:09:50;21.10;1.00
20284;DHT22;10301;50.832;4.080;2023-08-20T01:12:20;21.10;1.00
20284;DHT22;10301;50.832;4.080;2023-08-20T01:14:45;21.00;1.00
20284;DHT22;10301;50.832;4.080;2023-08-20T01:17:11;21.00;1.00
20284;DHT22;10301;50.832;4.080;2023-08-20T01:19:37;21.00;1.00
20284;DHT22;10301;50.832;4.080;2023-08-20T01:27:38;20.50;24.70
20284;DHT22;10301;50.832;4.080;2023-08-20T01:30:08;20.40;33.00
20284;DHT22;10301;50.832;4.080;2023-08-20T01:32:34;20.50;28.30
20284;DHT22;10301;50.832;4.080;2023-08-20T01:35:00;20.50;26.20
20284;DHT22;10301;50.832;4.080;2023-08-20T01:37:26;20.40;36.50
20284;DHT22;10301;50.832;4.080;2023-08-20T01:39:51;20.50;35.30
20284;DHT22;10301;50.832;4.080;2023-08-20T01:42:18;20.40;28.90
20284;DHT22;10301;50.832;4.080;2023-08-20T01:44:43;20.30;40.00
20284;DHT22;10301;50.832;4.080;2023-08-20T01:47:09;20.40;36.80
20284;DHT22;10301;50.832;4.080;2023-08-20T01:49:35;20.30;37.40
20284;DHT22;10301;50.832;4.080;2023-08-20T01:52:00;20.50;27.20
20284;DHT22;10301;50.832;4.080;2023-08-20T01:54:26;20.40;28.00
20284;DHT22;10301;50.832;4.080;2023-08-20T01:56:51;20.30;32.20
20284;DHT22;10301;50.832;4.080;2023-08-20T01:59:17;20.30;36.10
20284;DHT22;10301;50.832;4.080;2023-08-20T02:01:44;20.20;40.10
20284;DHT22;10301;50.832;4.080;2023-08-20T02:04:09;20.10;40.10
20284;DHT22;10301;50.832;4.080;2023-08-20T02:06:35;20.00;47.10
20284;DHT22;10301;50.832;4.080;2023-08-20T02:09:01;20.00;48.60
20284;DHT22;10301;50.832;4.080;2023-08-20T02:11:26;19.90;49.60
20284;DHT22;10301;50.832;4.080;2023-08-20T02:13:52;19.60;61.90
20284;DHT22;10301;50.832;4.080;2023-08-20T02:16:17;19.30;80.10
20284;DHT22;10301;50.832;4.080;2023-08-20T02:18:43;19.30;90.30
20284;DHT22;10301;50.832;4.080;2023-08-20T02:21:09;19.30;93.50
20284;DHT22;10301;50.832;4.080;2023-08-20T02:23:34;19.40;90.20
20284;DHT22;10301;50.832;4.080;2023-08-20T02:26:00;19.40;89.90
20284;DHT22;10301;50.832;4.080;2023-08-20T02:28:26;19.40;88.40
20284;DHT22;10301;50.832;4.080;2023-08-20T02:30:52;19.40;89.60
20284;DHT22;10301;50.832;4.080;2023-08-20T02:33:18;19.60;80.30
20284;DHT22;10301;50.832;4.080;2023-08-20T02:35:43;19.50;84.80
20284;DHT22;10301;50.832;4.080;2023-08-20T02:38:09;19.60;78.90
20284;DHT22;10301;50.832;4.080;2023-08-20T02:40:42;19.70;69.50
20284;DHT22;10301;50.832;4.080;2023-08-20T02:43:08;19.60;70.70
20284;DHT22;10301;50.832;4.080;2023-08-20T02:45:38;19.80;63.20
20284;DHT22;10301;50.832;4.080;2023-08-20T02:48:04;19.60;61.90
20284;DHT22;10301;50.832;4.080;2023-08-20T02:50:30;19.40;69.80
20284;DHT22;10301;50.832;4.080;2023-08-20T02:52:56;19.40;72.90
20284;DHT22;10301;50.832;4.080;2023-08-20T02:55:22;19.50;73.50
20284;DHT22;10301;50.832;4.080;2023-08-20T02:57:47;19.50;66.60
20284;DHT22;10301;50.832;4.080;2023-08-20T03:00:13;19.30;71.60
20284;DHT22;10301;50.832;4.080;2023-08-20T03:02:39;19.20;78.40
20284;DHT22;10301;50.832;4.080;2023-08-20T03:05:07;19.10;84.50
20284;DHT22;10301;50.832;4.080;2023-08-20T03:07:34;19.20;83.20
20284;DHT22;10301;50.832;4.080;2023-08-20T03:09:59;19.40;73.60
20284;DHT22;10301;50.832;4.080;2023-08-20T03:12:25;19.60;65.00
20284;DHT22;10301;50.832;4.080;2023-08-20T03:14:51;19.50;62.00
20284;DHT22;10301;50.832;4.080;2023-08-20T03:17:16;19.30;64.50
20284;DHT22;10301;50.832;4.080;2023-08-20T03:19:54;19.10;75.70
20284;DHT22;10301;50.832;4.080;2023-08-20T03:22:22;19.30;75.40
20284;DHT22;10301;50.832;4.080;2023-08-20T03:24:47;19.40;59.90
20284;DHT22;10301;50.832;4.080;2023-08-20T03:27:13;19.30;62.60
20284;DHT22;10301;50.832;4.080;2023-08-20T03:29:39;19.20;67.30
20284;DHT22;10301;50.832;4.080;2023-08-20T03:32:04;19.40;64.50
20284;DHT22;10301;50.832;4.080;2023-08-20T03:34:30;19.40;55.70
20284;DHT22;10301;50.832;4.080;2023-08-20T03:36:56;19.50;52.60
20284;DHT22;10301;50.832;4.080;2023-08-20T03:39:21;19.50;49.00
20284;DHT22;10301;50.832;4.080;2023-08-20T03:41:47;19.50;51.80
20284;DHT22;10301;50.832;4.080;2023-08-20T03:44:13;19.40;50.70
20284;DHT22;10301;50.832;4.080;2023-08-20T03:46:38;19.20;60.00
20284;DHT22;10301;50.832;4.080;2023-08-20T03:49:04;19.30;57.90
20284;DHT22;10301;50.832;4.080;2023-08-20T03:51:29;19.50;51.10
20284;DHT22;10301;50.832;4.080;2023-08-20T03:53:55;19.50;47.90
20284;DHT22;10301;50.832;4.080;2023-08-20T03:56:21;19.50;51.80
20284;DHT22;10301;50.832;4.080;2023-08-20T03:58:46;19.40;47.70
20284;DHT22;10301;50.832;4.080;2023-08-20T04:01:12;19.60;46.80
20284;DHT22;10301;50.832;4.080;2023-08-20T04:03:37;19.60;38.60
20284;DHT22;10301;50.832;4.080;2023-08-20T04:06:03;19.70;32.80
20284;DHT22;10301;50.832;4.080;2023-08-20T04:08:29;19.40;37.60
20284;DHT22;10301;50.832;4.080;2023-08-20T04:10:55;19.20;53.30
20284;DHT22;10301;50.832;4.080;2023-08-20T04:13:20;19.10;57.20
20284;DHT22;10301;50.832;4.080;2023-08-20T04:15:46;19.10;61.40
20284;DHT22;10301;50.832;4.080;2023-08-20T04:18:12;19.10;57.20
20284;DHT22;10301;50.832;4.080;2023-08-20T04:20:37;19.00;61.80
20284;DHT22;10301;50.832;4.080;2023-08-20T04:23:03;19.00;62.30
20284;DHT22;10301;50.832;4.080;2023-08-20T04:25:29;18.90;65.50
20284;DHT22;10301;50.832;4.080;2023-08-20T04:27:55;18.80;68.80
20284;DHT22;10301;50.832;4.080;2023-08-20T04:30:20;18.60;81.00
20284;DHT22;10301;50.832;4.080;2023-08-20T04:32:46;18.50;88.40
20284;DHT22;10301;50.832;4.080;2023-08-20T04:35:12;18.50;91.60
20284;DHT22;10301;50.832;4.080;2023-08-20T04:37:37;18.70;89.00
20284;DHT22;10301;50.832;4.080;2023-08-20T04:40:03;18.60;91.10
20284;DHT22;10301;50.832;4.080;2023-08-20T04:42:33;18.70;90.00
20284;DHT22;10301;50.832;4.080;2023-08-20T04:44:59;18.60;92.10
20284;DHT22;10301;50.832;4.080;2023-08-20T04:47:25;18.60;93.60
20284;DHT22;10301;50.832;4.080;2023-08-20T04:49:50;18.90;90.20
20284;DHT22;10301;50.832;4.080;2023-08-20T04:52:16;19.00;85.40
20284;DHT22;10301;50.832;4.080;2023-08-20T04:54:42;19.20;74.60
20284;DHT22;10301;50.832;4.080;2023-08-20T04:57:07;19.30;64.70
20284;DHT22;10301;50.832;4.080;2023-08-20T04:59:33;19.40;59.60
20284;DHT22;10301;50.832;4.080;2023-08-20T05:01:58;19.50;52.50
20284;DHT22;10301;50.832;4.080;2023-08-20T05:04:24;19.50;49.10
20284;DHT22;10301;50.832;4.080;2023-08-20T05:06:50;19.20;59.00
20284;DHT22;10301;50.832;4.080;2023-08-20T05:09:15;19.20;68.30
20284;DHT22;10301;50.832;4.080;2023-08-20T05:11:41;19.20;72.40
20284;DHT22;10301;50.832;4.080;2023-08-20T05:14:07;19.50;61.50
20284;DHT22;10301;50.832;4.080;2023-08-20T05:16:33;19.50;54.30
20284;DHT22;10301;50.832;4.080;2023-08-20T05:18:58;19.60;55.90
20284;DHT22;10301;50.832;4.080;2023-08-20T05:21:24;19.70;57.60
20284;DHT22;10301;50.832;4.080;2023-08-20T05:23:50;19.70;57.40
20284;DHT22;10301;50.832;4.080;2023-08-20T05:26:15;19.90;48.50
20284;DHT22;10301;50.832;4.080;2023-08-20T05:28:41;20.10;35.50
20284;DHT22;10301;50.832;4.080;2023-08-20T05:31:07;20.20;26.40
20284;DHT22;10301;50.832;4.080;2023-08-20T05:33:32;20.30;14.90
20284;DHT22;10301;50.832;4.080;2023-08-20T05:35:59;20.30;14.00
20284;DHT22;10301;50.832;4.080;2023-08-20T05:38:25;20.30;10.80
20284;DHT22;10301;50.832;4.080;2023-08-20T05:40:50;20.20;6.50
20284;DHT22;10301;50.832;4.080;2023-08-20T05:43:16;20.20;8.10
20284;DHT22;10301;50.832;4.080;2023-08-20T05:45:42;20.00;17.40
20284;DHT22;10301;50.832;4.080;2023-08-20T05:48:07;19.90;28.90
20284;DHT22;10301;50.832;4.080;2023-08-20T05:50:33;20.00;26.30
20284;DHT22;10301;50.832;4.080;2023-08-20T05:52:59;20.00;26.90
20284;DHT22;10301;50.832;4.080;2023-08-20T05:55:25;20.20;19.10
20284;DHT22;10301;50.832;4.080;2023-08-20T05:57:51;20.20;16.20
20284;DHT22;10301;50.832;4.080;2023-08-20T06:00:16;20.20;17.50
20284;DHT22;10301;50.832;4.080;2023-08-20T06:02:43;20.10;21.80
20284;DHT22;10301;50.832;4.080;2023-08-20T06:05:09;20.00;23.40
20284;DHT22;10301;50.832;4.080;2023-08-20T06:07:35;20.00;28.10
20284;DHT22;10301;50.832;4.080;2023-08-20T06:10:01;20.00;31.10
20284;DHT22;10301;50.832;4.080;2023-08-20T06:12:26;19.90;40.30
20284;DHT22;10301;50.832;4.080;2023-08-20T06:14:52;19.90;43.90
20284;DHT22;10301;50.832;4.080;2023-08-20T06:17:18;19.90;43.00
20284;DHT22;10301;50.832;4.080;2023-08-20T06:19:44;19.90;46.20
20284;DHT22;10301;50.832;4.080;2023-08-20T06:22:10;20.00;49.80
20284;DHT22;10301;50.832;4.080;2023-08-20T06:24:36;19.90;47.70
20284;DHT22;10301;50.832;4.080;2023-08-20T06:27:01;19.90;54.60
20284;DHT22;10301;50.832;4.080;2023-08-20T06:29:27;20.20;46.70
20284;DHT22;10301;50.832;4.080;2023-08-20T06:31:52;20.40;33.20
20284;DHT22;10301;50.832;4.080;2023-08-20T06:34:18;20.40;30.90
20284;DHT22;10301;50.832;4.080;2023-08-20T06:36:44;20.50;33.20
20284;DHT22;10301;50.832;4.080;2023-08-20T06:39:09;20.50;35.40
20284;DHT22;10301;50.832;4.080;2023-08-20T06:41:35;20.70;27.70
20284;DHT22;10301;50.832;4.080;2023-08-20T06:44:02;20.90;23.00
20284;DHT22;10301;50.832;4.080;2023-08-20T06:46:28;20.80;24.50
20284;DHT22;10301;50.832;4.080;2023-08-20T06:48:54;20.80;29.20
20284;DHT22;10301;50.832;4.080;2023-08-20T06:51:20;20.90;24.40
20284;DHT22;10301;50.832;4.080;2023-08-20T06:53:49;21.10;18.70
20284;DHT22;10301;50.832;4.080;2023-08-20T06:56:15;21.10;18.80
20284;DHT22;10301;50.832;4.080;2023-08-20T06:58:41;21.10;17.00
20284;DHT22;10301;50.832;4.080;2023-08-20T07:01:08;21.20;10.50
20284;DHT22;10301;50.832;4.080;2023-08-20T07:03:41;21.30;1.00
20284;DHT22;10301;50.832;4.080;2023-08-20T07:06:08;21.40;1.00
20284;DHT22;10301;50.832;4.080;2023-08-20T07:08:35;21.50;1.00
20284;DHT22;10301;50.832;4.080;2023-08-20T07:11:01;21.60;1.00
20284;DHT22;10301;50.832;4.080;2023-08-20T07:13:27;21.60;1.00
20284;DHT22;10301;50.832;4.080;2023-08-20T07:15:52;21.70;1.00
20284;DHT22;10301;50.832;4.080;2023-08-20T07:18:18;21.80;1.00
20284;DHT22;10301;50.832;4.080;2023-08-20T07:20:44;21.70;1.00
20284;DHT22;10301;50.832;4.080;2023-08-20T07:23:11;21.80;1.00
20284;DHT22;10301;50.832;4.080;2023-08-20T07:25:37;22.00;1.00
20284;DHT22;10301;50.832;4.080;2023-08-20T07:28:07;22.00;1.00
20284;DHT22;10301;50.832;4.080;2023-08-20T07:30:34;22.00;1.00
20284;DHT22;10301;50.832;4.080;2023-08-20T07:32:59;22.10;1.00
20284;DHT22;10301;50.832;4.080;2023-08-20T07:35:25;22.20;1.00
20284;DHT22;10301;50.832;4.080;2023-08-20T07:37:51;22.20;1.00
20284;DHT22;10301;50.832;4.080;2023-08-20T07:40:17;22.30;1.00
20284;DHT22;10301;50.832;4.080;2023-08-20T07:42:43;22.50;1.00
20284;DHT22;10301;50.832;4.080;2023-08-20T07:45:09;22.60;1.00
20284;DHT22;10301;50.832;4.080;2023-08-20T07:47:38;22.50;1.00
20284;DHT22;10301;50.832;4.080;2023-08-20T07:50:04;22.60;1.00
20284;DHT22;10301;50.832;4.080;2023-08-20T07:52:31;22.60;1.00
20284;DHT22;10301;50.832;4.080;2023-08-20T07:54:57;22.70;1.00
20284;DHT22;10301;50.832;4.080;2023-08-20T07:57:23;22.80;1.00
20284;DHT22;10301;50.832;4.080;2023-08-20T07:59:51;22.70;1.00
20284;DHT22;10301;50.832;4.080;2023-08-20T08:02:17;22.60;1.00
20284;DHT22;10301;50.832;4.080;2023-08-20T08:04:43;22.80;1.00
20284;DHT22;10301;50.832;4.080;2023-08-20T08:07:10;22.80;1.00
20284;DHT22;10301;50.832;4.080;2023-08-20T08:09:36;22.70;1.00
20284;DHT22;10301;50.832;4.080;2023-08-20T08:12:02;22.90;1.00
20284;DHT22;10301;50.832;4.080;2023-08-20T08:14:29;23.00;1.00
20284;DHT22;10301;50.832;4.080;2023-08-20T08:16:54;23.10;99.90
20284;DHT22;10301;50.832;4.080;2023-08-20T08:19:20;23.20;99.90
20284;DHT22;10301;50.832;4.080;2023-08-20T08:21:47;23.40;21.30
20284;DHT22;10301;50.832;4.080;2023-08-20T08:24:13;23.30;99.40
20284;DHT22;10301;50.832;4.080;2023-08-20T08:26:40;23.20;99.90
20284;DHT22;10301;50.832;4.080;2023-08-20T08:29:06;23.10;99.90
20284;DHT22;10301;50.832;4.080;2023-08-20T08:31:32;23.30;99.90
20284;DHT22;10301;50.832;4.080;2023-08-20T08:33:58;23.30;99.90
20284;DHT22;10301;50.832;4.080;2023-08-20T08:36:24;23.40;99.90
20284;DHT22;10301;50.832;4.080;2023-08-20T08:38:51;23.30;99.90
20284;DHT22;10301;50.832;4.080;2023-08-20T08:41:16;23.30;99.90
20284;DHT22;10301;50.832;4.080;2023-08-20T08:43:42;23.10;99.90
20284;DHT22;10301;50.832;4.080;2023-08-20T08:46:14;23.10;99.90
20284;DHT22;10301;50.832;4.080;2023-08-20T08:48:45;23.20;99.90
20284;DHT22;10301;50.832;4.080;2023-08-20T08:51:12;23.70;1.00
20284;DHT22;10301;50.832;4.080;2023-08-20T08:53:38;23.80;1.00
20284;DHT22;10301;50.832;4.080;2023-08-20T08:56:05;23.80;1.00
20284;DHT22;10301;50.832;4.080;2023-08-20T08:58:33;23.70;1.00
20284;DHT22;10301;50.832;4.080;2023-08-20T09:00:59;23.50;1.00
20284;DHT22;10301;50.832;4.080;2023-08-20T09:03:25;23.50;1.00
20284;DHT22;10301;50.832;4.080;2023-08-20T09:05:56;23.70;1.00
20284;DHT22;10301;50.832;4.080;2023-08-20T09:08:31;23.50;1.00
20284;DHT22;10301;50.832;4.080;2023-08-20T09:10:59;23.70;99.90
20284;DHT22;10301;50.832;4.080;2023-08-20T09:13:32;24.00;1.00
20284;DHT22;10301;50.832;4.080;2023-08-20T09:15:58;24.00;1.00
20284;DHT22;10301;50.832;4.080;2023-08-20T09:18:24;23.90;1.00
20284;DHT22;10301;50.832;4.080;2023-08-20T09:20:49;23.80;99.90
20284;DHT22;10301;50.832;4.080;2023-08-20T09:23:15;24.20;72.30
20284;DHT22;10301;50.832;4.080;2023-08-20T09:25:42;24.50;8.90
20284;DHT22;10301;50.832;4.080;2023-08-20T09:28:08;24.20;1.00
20284;DHT22;10301;50.832;4.080;2023-08-20T09:30:34;24.10;56.30
20284;DHT22;10301;50.832;4.080;2023-08-20T09:33:18;24.10;1.00
20284;DHT22;10301;50.832;4.080;2023-08-20T09:35:51;24.50;1.00
20284;DHT22;10301;50.832;4.080;2023-08-20T09:38:20;24.90;98.10
20284;DHT22;10301;50.832;4.080;2023-08-20T09:40:51;25.00;1.00
20284;DHT22;10301;50.832;4.080;2023-08-20T09:43:18;24.80;1.00
20284;DHT22;10301;50.832;4.080;2023-08-20T09:45:46;24.80;99.90
20284;DHT22;10301;50.832;4.080;2023-08-20T09:48:18;24.70;99.90
20284;DHT22;10301;50.832;4.080;2023-08-20T09:50:47;24.80;1.00
20284;DHT22;10301;50.832;4.080;2023-08-20T09:55:43;24.50;1.00
20284;DHT22;10301;50.832;4.080;2023-08-20T09:58:10;24.50;48.00
20284;DHT22;10301;50.832;4.080;2023-08-20T10:00:37;24.80;99.90
20284;DHT22;10301;50.832;4.080;2023-08-20T10:03:03;24.90;1.00
20284;DHT22;10301;50.832;4.080;2023-08-20T10:05:29;24.90;99.90
20284;DHT22;10301;50.832;4.080;2023-08-20T10:07:58;25.00;99.90
20284;DHT22;10301;50.832;4.080;2023-08-20T10:10:24;25.30;99.90
20284;DHT22;10301;50.832;4.080;2023-08-20T10:12:51;25.40;1.00
20284;DHT22;10301;50.832;4.080;2023-08-20T10:15:17;25.50;1.00
20284;DHT22;10301;50.832;4.080;2023-08-20T10:17:45;25.70;1.00
20284;DHT22;10301;50.832;4.080;2023-08-20T10:20:14;25.70;99.90
20284;DHT22;10301;50.832;4.080;2023-08-20T10:22:44;25.80;1.00
20284;DHT22;10301;50.832;4.080;2023-08-20T10:25:30;25.70;99.90
20284;DHT22;10301;50.832;4.080;2023-08-20T10:28:13;25.50;99.90
20284;DHT22;10301;50.832;4.080;2023-08-20T10:31:10;25.40;53.70
20284;DHT22;10301;50.832;4.080;2023-08-20T10:33:47;25.50;1.00
20284;DHT22;10301;50.832;4.080;2023-08-20T10:36:16;25.50;99.90
20284;DHT22;10301;50.832;4.080;2023-08-20T10:38:45;25.70;1.00
20284;DHT22;10301;50.832;4.080;2023-08-20T10:41:11;25.60;99.90
20284;DHT22;10301;50.832;4.080;2023-08-20T10:43:38;25.40;1.00
20284;DHT22;10301;50.832;4.080;2023-08-20T10:48:39;25.40;99.90
20284;DHT22;10301;50.832;4.080;2023-08-20T10:51:11;25.30;1.00
20284;DHT22;10301;50.832;4.080;2023-08-20T10:53:39;25.40;1.00
20284;DHT22;10301;50.832;4.080;2023-08-20T10:56:09;25.40;1.00
20284;DHT22;10301;50.832;4.080;2023-08-20T10:58:35;25.60;99.90
20284;DHT22;10301;50.832;4.080;2023-08-20T11:01:22;25.80;1.00
20284;DHT22;10301;50.832;4.080;2023-08-20T11:03:50;25.90;99.90
20284;DHT22;10301;50.832;4.080;2023-08-20T11:06:16;25.70;99.90
20284;DHT22;10301;50.832;4.080;2023-08-20T11:08:43;25.60;1.00
20284;DHT22;10301;50.832;4.080;2023-08-20T11:11:09;25.60;1.00
20284;DHT22;10301;50.832;4.080;2023-08-20T11:13:35;25.60;99.90
20284;DHT22;10301;50.832;4.080;2023-08-20T11:16:05;25.80;1.00
20284;DHT22;10301;50.832;4.080;2023-08-20T11:18:34;25.80;1.00
20284;DHT22;10301;50.832;4.080;2023-08-20T11:21:01;26.20;1.00
20284;DHT22;10301;50.832;4.080;2023-08-20T11:23:27;26.40;99.90
20284;DHT22;10301;50.832;4.080;2023-08-20T11:25:53;26.20;99.90
20284;DHT22;10301;50.832;4.080;2023-08-20T11:28:19;26.10;99.90
20284;DHT22;10301;50.832;4.080;2023-08-20T11:30:46;26.20;1.00
20284;DHT22;10301;50.832;4.080;2023-08-20T11:33:12;26.10;99.90
20284;DHT22;10301;50.832;4.080;2023-08-20T11:35:38;26.10;14.10
20284;DHT22;10301;50.832;4.080;2023-08-20T11:38:05;26.10;1.00
20284;DHT22;10301;50.832;4.080;2023-08-20T11:40:31;26.30;1.00
20284;DHT22;10301;50.832;4.080;2023-08-20T11:42:57;26.40;1.00
20284;DHT22;10301;50.832;4.080;2023-08-20T11:45:23;26.80;1.00
20284;DHT22;10301;50.832;4.080;2023-08-20T11:47:49;26.80;99.90
20284;DHT22;10301;50.832;4.080;2023-08-20T11:50:14;26.90;99.90
20284;DHT22;10301;50.832;4.080;2023-08-20T11:52:40;26.70;99.90
20284;DHT22;10301;50.832;4.080;2023-08-20T11:55:06;26.50;1.00
20284;DHT22;10301;50.832;4.080;2023-08-20T11:57:32;26.50;1.00
20284;DHT22;10301;50.832;4.080;2023-08-20T12:00:05;26.70;1.00
20284;DHT22;10301;50.832;4.080;2023-08-20T12:02:34;26.80;1.00
20284;DHT22;10301;50.832;4.080;2023-08-20T12:05:00;27.10;99.90
20284;DHT22;10301;50.832;4.080;2023-08-20T12:07:26;27.00;99.90
20284;DHT22;10301;50.832;4.080;2023-08-20T12:09:53;27.00;99.90
20284;DHT22;10301;50.832;4.080;2023-08-20T12:12:19;26.80;99.90
20284;DHT22;10301;50.832;4.080;2023-08-20T12:14:49;26.70;99.90
20284;DHT22;10301;50.832;4.080;2023-08-20T12:17:20;26.70;55.80
20284;DHT22;10301;50.832;4.080;2023-08-20T12:19:46;26.90;1.00
20284;DHT22;10301;50.832;4.080;2023-08-20T12:22:12;27.10;1.00
20284;DHT22;10301;50.832;4.080;2023-08-20T12:24:38;27.10;1.00
20284;DHT22;10301;50.832;4.080;2023-08-20T12:27:04;27.20;1.00
20284;DHT22;10301;50.832;4.080;2023-08-20T12:29:30;27.20;1.00
20284;DHT22;10301;50.832;4.080;2023-08-20T12:31:55;27.40;1.00
20284;DHT22;10301;50.832;4.080;2023-08-20T12:34:21;27.40;53.70
20284;DHT22;10301;50.832;4.080;2023-08-20T12:36:48;27.10;35.70
20284;DHT22;10301;50.832;4.080;2023-08-20T12:39:14;27.20;1.00
20284;DHT22;10301;50.832;4.080;2023-08-20T12:41:39;27.40;1.00
20284;DHT22;10301;50.832;4.080;2023-08-20T12:44:05;27.50;99.90
20284;DHT22;10301;50.832;4.080;2023-08-20T12:46:31;27.20;1.00
20284;DHT22;10301;50.832;4.080;2023-08-20T12:48:56;27.20;1.00
20284;DHT22;10301;50.832;4.080;2023-08-20T12:51:22;27.00;1.00
20284;DHT22;10301;50.832;4.080;2023-08-20T12:53:48;27.20;1.00
20284;DHT22;10301;50.832;4.080;2023-08-20T12:56:14;27.70;1.00
20284;DHT22;10301;50.832;4.080;2023-08-20T12:58:41;27.90;1.00
20284;DHT22;10301;50.832;4.080;2023-08-20T13:01:07;27.80;1.00
20284;DHT22;10301;50.832;4.080;2023-08-20T13:03:33;27.90;99.90
20284;DHT22;10301;50.832;4.080;2023-08-20T13:05:59;27.90;99.90
20284;DHT22;10301;50.832;4.080;2023-08-20T13:08:25;28.00;99.90
20284;DHT22;10301;50.832;4.080;2023-08-20T13:10:56;28.00;99.90
20284;DHT22;10301;50.832;4.080;2023-08-20T13:13:23;28.20;1.00
20284;DHT22;10301;50.832;4.080;2023-08-20T13:15:52;28.30;1.00
20284;DHT22;10301;50.832;4.080;2023-08-20T13:18:18;28.50;1.00
20284;DHT22;10301;50.832;4.080;2023-08-20T13:20:44;29.10;1.00
20284;DHT22;10301;50.832;4.080;2023-08-20T13:23:10;29.20;1.00
20284;DHT22;10301;50.832;4.080;2023-08-20T13:25:36;29.20;1.00
20284;DHT22;10301;50.832;4.080;2023-08-20T13:28:02;29.10;1.00
20284;DHT22;10301;50.832;4.080;2023-08-20T13:30:28;29.90;99.90
20284;DHT22;10301;50.832;4.080;2023-08-20T13:32:54;30.70;11.00
20284;DHT22;10301;50.832;4.080;2023-08-20T13:35:19;31.00;1.00
20284;DHT22;10301;50.832;4.080;2023-08-20T13:37:45;31.10;1.00
20284;DHT22;10301;50.832;4.080;2023-08-20T13:40:11;31.10;1.00
20284;DHT22;10301;50.832;4.080;2023-08-20T13:42:36;31.10;1.00
20284;DHT22;10301;50.832;4.080;2023-08-20T13:45:02;30.70;1.00
20284;DHT22;10301;50.832;4.080;2023-08-20T13:47:29;30.50;1.00
20284;DHT22;10301;50.832;4.080;2023-08-20T13:49:54;30.50;1.00
20284;DHT22;10301;50.832;4.080;2023-08-20T13:52:20;30.40;99.90
20284;DHT22;10301;50.832;4.080;2023-08-20T13:54:46;30.40;99.90
20284;DHT22;10301;50.832;4.080;2023-08-20T13:57:11;30.50;99.90
20284;DHT22;10301;50.832;4.080;2023-08-20T13:59:37;30.20;99.90
20284;DHT22;10301;50.832;4.080;2023-08-20T14:02:04;30.10;99.90
20284;DHT22;10301;50.832;4.080;2023-08-20T14:04:30;30.50;60.20
20284;DHT22;10301;50.832;4.080;2023-08-20T14:06:55;30.40;26.50
20284;DHT22;10301;50.832;4.080;2023-08-20T14:09:21;30.30;99.90
20284;DHT22;10301;50.832;4.080;2023-08-20T14:11:46;30.60;99.90
20284;DHT22;10301;50.832;4.080;2023-08-20T14:14:12;30.90;25.00
20284;DHT22;10301;50.832;4.080;2023-08-20T14:16:38;31.10;1.00
20284;DHT22;10301;50.832;4.080;2023-08-20T14:19:04;31.10;1.00
20284;DHT22;10301;50.832;4.080;2023-08-20T14:21:29;30.70;99.90
20284;DHT22;10301;50.832;4.080;2023-08-20T14:23:55;31.00;1.00
20284;DHT22;10301;50.832;4.080;2023-08-20T14:26:21;31.20;1.00
20284;DHT22;10301;50.832;4.080;2023-08-20T14:28:46;31.10;1.00
20284;DHT22;10301;50.832;4.080;2023-08-20T14:31:12;31.30;1.00
20284;DHT22;10301;50.832;4.080;2023-08-20T14:33:38;31.20;1.00
20284;DHT22;10301;50.832;4.080;2023-08-20T14:36:03;31.00;1.00
20284;DHT22;10301;50.832;4.080;2023-08-20T14:38:30;30.90;85.20
20284;DHT22;10301;50.832;4.080;2023-08-20T14:41:00;30.60;99.90
20284;DHT22;10301;50.832;4.080;2023-08-20T14:43:27;30.50;99.90
20284;DHT22;10301;50.832;4.080;2023-08-20T14:45:53;30.50;99.90
20284;DHT22;10301;50.832;4.080;2023-08-20T14:48:20;30.40;99.90
20284;DHT22;10301;50.832;4.080;2023-08-20T14:50:45;30.20;99.90
20284;DHT22;10301;50.832;4.080;2023-08-20T14:53:11;30.10;99.90
20284;DHT22;10301;50.832;4.080;2023-08-20T14:55:36;30.00;99.90
20284;DHT22;10301;50.832;4.080;2023-08-20T14:58:02;30.00;99.90
20284;DHT22;10301;50.832;4.080;2023-08-20T15:00:32;29.90;99.90
20284;DHT22;10301;50.832;4.080;2023-08-20T15:02:57;29.80;1.00
20284;DHT22;10301;50.832;4.080;2023-08-20T15:05:23;29.70;1.00
20284;DHT22;10301;50.832;4.080;2023-08-20T15:07:49;29.50;1.00
20284;DHT22;10301;50.832;4.080;2023-08-20T15:10:14;29.10;1.00
20284;DHT22;10301;50.832;4.080;2023-08-20T15:12:40;29.40;1.00
20284;DHT22;10301;50.832;4.080;2023-08-20T15:15:07;29.80;1.00
20284;DHT22;10301;50.832;4.080;2023-08-20T15:17:34;29.60;1.00
20284;DHT22;10301;50.832;4.080;2023-08-20T15:20:01;29.80;1.00
20284;DHT22;10301;50.832;4.080;2023-08-20T15:22:29;29.90;1.00
20284;DHT22;10301;50.832;4.080;2023-08-20T15:24:55;30.10;1.00
20284;DHT22;10301;50.832;4.080;2023-08-20T15:27:23;30.20;1.00
20284;DHT22;10301;50.832;4.080;2023-08-20T15:29:50;30.20;1.00
20284;DHT22;10301;50.832;4.080;2023-08-20T15:32:15;30.00;1.00
20284;DHT22;10301;50.832;4.080;2023-08-20T15:34:41;30.10;1.00
20284;DHT22;10301;50.832;4.080;2023-08-20T15:37:06;30.30;1.00
20284;DHT22;10301;50.832;4.080;2023-08-20T15:39:33;30.20;1.00
20284;DHT22;10301;50.832;4.080;2023-08-20T15:42:02;29.60;1.00
20284;DHT22;10301;50.832;4.080;2023-08-20T15:44:27;29.40;1.00